createdAt,value
2022-10-01T00:01:27.950Z,86.75
2022-10-01T00:03:55.843Z,86.79
2022-10-01T00:06:24.869Z,86.86
2022-10-01T00:08:52.906Z,86.90
2022-10-01T00:11:24.634Z,86.93
2022-10-01T00:13:54.195Z,87.01
2022-10-01T00:16:27.558Z,87.10
2022-10-01T00:18:57.580Z,87.14
2022-10-01T00:21:28.554Z,87.16
2022-10-01T00:24:05.232Z,87.21
2022-10-01T00:26:35.191Z,87.22
2022-10-01T00:29:11.982Z,87.23
2022-10-01T00:31:40.031Z,87.27
2022-10-01T00:34:09.795Z,87.30
2022-10-01T00:36:37.567Z,87.33
2022-10-01T00:39:05.405Z,87.33
2022-10-01T00:41:34.813Z,87.36
2022-10-01T00:44:36.366Z,87.40
2022-10-01T00:47:19.466Z,87.38
2022-10-01T00:49:48.667Z,87.42
2022-10-01T00:52:22.853Z,87.44
2022-10-01T00:54:55.923Z,87.37
2022-10-01T00:57:26.672Z,87.50
2022-10-01T00:59:57.192Z,87.68
2022-10-01T01:02:25.292Z,87.61
2022-10-01T01:04:53.137Z,87.57
2022-10-01T01:07:22.122Z,87.56
2022-10-01T01:09:53.517Z,87.56
2022-10-01T01:12:59.785Z,87.52
2022-10-01T01:15:33.154Z,87.52
2022-10-01T01:18:19.740Z,87.52
2022-10-01T01:21:02.747Z,87.53
2022-10-01T01:23:51.277Z,87.53
2022-10-01T01:26:54.795Z,87.52
2022-10-01T01:29:41.381Z,87.54
2022-10-01T01:32:15.062Z,87.53
2022-10-01T01:34:46.917Z,87.57
2022-10-01T01:37:19.358Z,87.57
2022-10-01T01:39:51.604Z,87.51
2022-10-01T01:42:25.826Z,87.48
2022-10-01T01:44:58.298Z,87.47
2022-10-01T01:47:30.570Z,87.44
2022-10-01T01:50:00.275Z,87.40
2022-10-01T01:52:29.004Z,87.36
2022-10-01T01:54:57.824Z,87.33
2022-10-01T01:57:26.692Z,87.26
2022-10-01T01:59:55.160Z,87.23
2022-10-01T02:02:33.325Z,87.26
2022-10-01T02:05:05.445Z,87.29
2022-10-01T02:07:47.333Z,87.37
2022-10-01T02:10:47.156Z,87.46
2022-10-01T02:13:30.029Z,87.48
2022-10-01T02:16:04.553Z,87.38
2022-10-01T02:18:46.605Z,87.31
2022-10-01T02:21:33.209Z,87.24
2022-10-01T02:24:24.858Z,87.22
2022-10-01T02:26:55.645Z,87.22
2022-10-01T02:29:24.179Z,87.25
2022-10-01T02:31:55.839Z,87.29
2022-10-01T02:34:30.368Z,87.35
2022-10-01T02:37:02.765Z,87.34
2022-10-01T02:39:33.090Z,87.30
2022-10-01T02:42:03.212Z,87.34
2022-10-01T02:44:40.366Z,87.39
2022-10-01T02:47:18.326Z,87.38
2022-10-01T02:49:47.962Z,87.35
2022-10-01T02:52:42.002Z,87.45
2022-10-01T02:55:18.197Z,87.39
2022-10-01T02:57:46.292Z,87.35
2022-10-01T03:00:16.981Z,87.30
2022-10-01T03:02:44.817Z,87.26
2022-10-01T03:05:12.932Z,87.35
2022-10-01T03:07:43.753Z,87.44
2022-10-01T03:10:12.742Z,87.64
2022-10-01T03:12:45.367Z,87.67
2022-10-01T03:15:16.162Z,87.56
2022-10-01T03:17:43.992Z,87.53
2022-10-01T03:20:12.584Z,87.64
2022-10-01T03:22:40.562Z,87.70
2022-10-01T03:25:08.816Z,87.69
2022-10-01T03:27:36.792Z,87.67
2022-10-01T03:30:05.829Z,87.65
2022-10-01T03:32:33.934Z,87.61
2022-10-01T03:35:01.806Z,87.49
2022-10-01T03:37:29.698Z,87.46
2022-10-01T03:39:57.482Z,87.39
2022-10-01T03:42:25.285Z,87.29
2022-10-01T03:44:53.369Z,87.27
2022-10-01T03:47:24.425Z,87.19
2022-10-01T03:49:52.282Z,87.03
2022-10-01T03:52:20.540Z,86.83
2022-10-01T03:54:48.407Z,86.48
2022-10-01T03:57:16.169Z,86.37
2022-10-01T03:59:44.416Z,85.99
2022-10-01T04:02:12.331Z,85.60
2022-10-01T04:04:40.379Z,85.35
2022-10-01T04:07:08.516Z,85.20
2022-10-01T04:09:37.677Z,85.04
2022-10-01T04:12:05.927Z,84.82
2022-10-01T04:14:34.194Z,84.32
2022-10-01T04:17:01.940Z,84.21
2022-10-01T04:19:29.759Z,83.99
2022-10-01T04:21:57.842Z,83.97
2022-10-01T04:24:25.792Z,83.86
2022-10-01T04:26:53.629Z,83.79
2022-10-01T04:29:21.942Z,83.93
2022-10-01T04:31:49.935Z,84.01
2022-10-01T04:34:17.776Z,84.08
2022-10-01T04:36:45.912Z,84.25
2022-10-01T04:39:13.921Z,84.39
2022-10-01T04:41:41.648Z,84.51
2022-10-01T04:44:10.541Z,84.49
2022-10-01T04:46:38.810Z,84.43
2022-10-01T04:49:06.561Z,84.52
2022-10-01T04:51:34.651Z,84.65
2022-10-01T04:54:02.834Z,84.55
2022-10-01T04:56:30.590Z,84.32
2022-10-01T04:58:58.498Z,84.20
2022-10-01T05:01:26.338Z,84.24
2022-10-01T05:03:54.056Z,84.32
2022-10-01T05:06:22.052Z,84.13
2022-10-01T05:08:51.131Z,84.13
2022-10-01T05:11:19.059Z,84.34
2022-10-01T05:13:47.054Z,84.46
2022-10-01T05:16:15.109Z,84.42
2022-10-01T05:18:43.567Z,84.52
2022-10-01T05:21:11.838Z,84.54
2022-10-01T05:23:39.596Z,84.51
2022-10-01T05:26:08.176Z,84.67
2022-10-01T05:28:36.278Z,84.81
2022-10-01T05:31:04.708Z,84.94
2022-10-01T05:33:34.207Z,85.01
2022-10-01T05:36:05.301Z,85.01
2022-10-01T05:38:37.298Z,85.11
2022-10-01T05:41:05.576Z,85.26
2022-10-01T05:43:33.355Z,85.38
2022-10-01T05:46:05.594Z,85.63
2022-10-01T05:48:37.241Z,85.90
2022-10-01T05:51:16.265Z,86.24
2022-10-01T05:53:48.228Z,86.60
2022-10-01T05:56:22.773Z,86.94
2022-10-01T05:58:51.009Z,87.20
2022-10-01T06:01:18.777Z,87.53
2022-10-01T06:03:50.347Z,87.85
2022-10-01T06:06:23.220Z,88.06
2022-10-01T06:08:51.730Z,88.19
2022-10-01T06:11:22.663Z,88.41
2022-10-01T06:13:51.059Z,88.58
2022-10-01T06:16:20.926Z,88.88
2022-10-01T06:18:49.749Z,89.18
2022-10-01T06:21:17.514Z,89.87
2022-10-01T06:23:45.907Z,89.55
2022-10-01T06:26:13.858Z,89.47
2022-10-01T06:28:41.606Z,89.66
2022-10-01T06:31:09.623Z,89.86
2022-10-01T06:33:37.603Z,90.00
2022-10-01T06:36:05.812Z,90.14
2022-10-01T06:38:33.645Z,90.21
2022-10-01T06:41:02.320Z,90.46
2022-10-01T06:43:31.952Z,90.76
2022-10-01T06:46:05.136Z,90.70
2022-10-01T06:48:37.071Z,90.48
2022-10-01T06:51:05.889Z,90.31
2022-10-01T06:53:33.613Z,90.32
2022-10-01T06:56:06.705Z,90.30
2022-10-01T06:58:35.151Z,89.81
2022-10-01T07:01:04.022Z,89.80
2022-10-01T07:03:32.040Z,89.78
2022-10-01T07:06:05.514Z,89.64
2022-10-01T07:08:33.618Z,89.48
2022-10-01T07:11:03.423Z,89.46
2022-10-01T07:13:31.634Z,89.54
2022-10-01T07:15:59.578Z,89.67
2022-10-01T07:18:27.685Z,88.98
2022-10-01T07:20:57.482Z,89.09
2022-10-01T07:23:25.617Z,89.17
2022-10-01T07:25:53.455Z,89.51
2022-10-01T07:28:25.757Z,89.59
2022-10-01T07:31:06.996Z,89.48
2022-10-01T07:33:35.099Z,88.88
2022-10-01T07:36:05.630Z,88.07
2022-10-01T07:38:34.071Z,87.80
2022-10-01T07:41:05.240Z,87.61
2022-10-01T07:43:34.953Z,87.73
2022-10-01T07:46:03.723Z,87.88
2022-10-01T07:48:31.744Z,87.94
2022-10-01T07:50:59.888Z,87.31
2022-10-01T07:53:28.349Z,87.05
2022-10-01T07:55:56.908Z,86.99
2022-10-01T07:58:24.896Z,87.15
2022-10-01T08:00:58.210Z,87.13
2022-10-01T08:03:26.403Z,87.12
2022-10-01T08:05:54.749Z,87.16
2022-10-01T08:08:22.994Z,86.85
2022-10-01T08:10:51.061Z,86.62
2022-10-01T08:13:19.157Z,86.68
2022-10-01T08:15:50.673Z,86.49
2022-10-01T08:18:18.931Z,86.43
2022-10-01T08:20:46.821Z,86.52
2022-10-01T08:23:15.958Z,86.34
2022-10-01T08:25:45.971Z,86.33
2022-10-01T08:28:14.609Z,85.94
2022-10-01T08:30:42.998Z,85.89
2022-10-01T08:33:12.964Z,85.77
2022-10-01T08:35:41.582Z,85.67
2022-10-01T08:38:11.124Z,85.65
2022-10-01T08:40:46.783Z,85.53
2022-10-01T08:43:38.543Z,85.72
2022-10-01T08:46:13.128Z,85.77
2022-10-01T08:48:47.150Z,85.63
2022-10-01T08:51:40.148Z,85.62
2022-10-01T08:54:24.228Z,85.52
2022-10-01T08:56:55.031Z,85.39
2022-10-01T08:59:44.799Z,85.44
2022-10-01T09:02:30.068Z,85.46
2022-10-01T09:05:24.892Z,85.48
2022-10-01T09:08:05.067Z,85.25
2022-10-01T09:11:08.406Z,85.34
2022-10-01T09:14:44.108Z,85.29
2022-10-01T09:17:23.877Z,85.18
2022-10-01T09:20:27.280Z,85.09
2022-10-01T09:23:20.165Z,85.04
2022-10-01T09:25:51.339Z,84.83
2022-10-01T09:28:25.345Z,84.85
2022-10-01T09:31:12.293Z,84.95
2022-10-01T09:33:53.133Z,84.93
2022-10-01T09:36:38.455Z,84.52
2022-10-01T09:39:27.417Z,84.25
2022-10-01T09:41:56.284Z,83.78
2022-10-01T09:44:30.275Z,83.76
2022-10-01T09:46:58.642Z,83.76
2022-10-01T09:49:43.789Z,83.52
2022-10-01T09:52:27.245Z,83.74
2022-10-01T09:55:05.319Z,83.64
2022-10-01T09:57:43.460Z,83.23
2022-10-01T10:00:18.302Z,83.10
2022-10-01T10:02:51.676Z,83.36
2022-10-01T10:05:23.735Z,82.98
2022-10-01T10:07:59.754Z,82.57
2022-10-01T10:10:39.673Z,82.44
2022-10-01T10:13:11.063Z,82.42
2022-10-01T10:15:49.363Z,82.02
2022-10-01T10:18:24.088Z,82.01
2022-10-01T10:20:54.071Z,81.62
2022-10-01T10:23:29.485Z,81.18
2022-10-01T10:26:02.836Z,81.17
2022-10-01T10:28:46.790Z,81.39
2022-10-01T10:31:22.169Z,81.29
2022-10-01T10:34:16.840Z,81.27
2022-10-01T10:36:46.286Z,80.82
2022-10-01T10:39:30.229Z,80.94
2022-10-01T10:42:00.140Z,80.95
2022-10-01T10:44:35.252Z,80.55
2022-10-01T10:47:15.059Z,80.35
2022-10-01T10:50:02.273Z,80.46
2022-10-01T10:52:36.575Z,80.65
2022-10-01T10:55:25.311Z,80.47
2022-10-01T10:57:57.325Z,80.35
2022-10-01T11:00:29.947Z,80.63
2022-10-01T11:03:00.558Z,80.79
2022-10-01T11:05:33.013Z,80.26
2022-10-01T11:08:04.023Z,79.35
2022-10-01T11:10:44.678Z,79.02
2022-10-01T11:13:36.516Z,79.39
2022-10-01T11:16:38.695Z,78.93
2022-10-01T11:19:30.417Z,77.56
2022-10-01T11:22:06.275Z,78.49
2022-10-01T11:25:05.230Z,78.49
2022-10-01T11:27:55.232Z,78.21
2022-10-01T11:30:26.590Z,78.07
2022-10-01T11:33:28.192Z,77.92
2022-10-01T11:36:25.007Z,77.05
2022-10-01T11:39:05.852Z,77.61
2022-10-01T11:41:46.782Z,77.69
2022-10-01T11:44:29.049Z,77.69
2022-10-01T11:47:20.819Z,77.61
2022-10-01T11:50:20.595Z,77.43
2022-10-01T11:52:56.936Z,77.14
2022-10-01T11:55:43.738Z,76.77
2022-10-01T11:58:49.364Z,76.33
2022-10-01T12:01:32.140Z,76.69
2022-10-01T12:04:32.529Z,76.72
2022-10-01T12:07:12.258Z,76.57
2022-10-01T12:09:55.083Z,76.45
2022-10-01T12:12:28.192Z,76.30
2022-10-01T12:15:06.937Z,76.09
2022-10-01T12:17:45.387Z,75.99
2022-10-01T12:20:33.328Z,75.35
2022-10-01T12:23:07.746Z,75.54
2022-10-01T12:26:01.289Z,75.08
2022-10-01T12:29:00.169Z,75.04
2022-10-01T12:31:52.153Z,74.51
2022-10-01T12:34:35.142Z,75.29
2022-10-01T12:37:20.457Z,75.46
2022-10-01T12:40:03.797Z,75.50
2022-10-01T12:43:04.272Z,75.27
2022-10-01T12:45:45.534Z,75.10
2022-10-01T12:48:36.844Z,75.13
2022-10-01T12:51:32.067Z,74.77
2022-10-01T12:54:21.998Z,73.75
2022-10-01T12:57:15.591Z,74.66
2022-10-01T12:59:59.427Z,74.30
2022-10-01T13:03:21.583Z,74.22
2022-10-01T13:06:14.288Z,74.68
2022-10-01T13:08:47.909Z,74.58
2022-10-01T13:12:01.402Z,74.37
2022-10-01T13:14:33.253Z,74.29
2022-10-01T13:17:12.322Z,74.17
2022-10-01T13:19:51.356Z,74.33
2022-10-01T13:22:37.261Z,74.08
2022-10-01T13:25:37.597Z,74.03
2022-10-01T13:28:56.149Z,73.79
2022-10-01T13:31:51.770Z,74.08
2022-10-01T13:34:28.054Z,74.04
2022-10-01T13:36:56.053Z,73.79
2022-10-01T13:39:24.631Z,74.18
2022-10-01T13:41:57.711Z,74.08
2022-10-01T13:44:34.751Z,74.14
2022-10-01T13:47:07.245Z,74.37
2022-10-01T13:49:37.072Z,74.62
2022-10-01T13:52:06.231Z,74.61
2022-10-01T13:54:40.060Z,74.45
2022-10-01T13:57:22.954Z,74.12
2022-10-01T14:00:12.959Z,74.29
2022-10-01T14:03:23.836Z,74.41
2022-10-01T14:05:57.924Z,74.21
2022-10-01T14:08:34.945Z,74.38
2022-10-01T14:11:28.713Z,74.62
2022-10-01T14:14:21.597Z,74.75
2022-10-01T14:16:50.150Z,74.98
2022-10-01T14:19:23.976Z,75.01
2022-10-01T14:22:12.473Z,74.89
2022-10-01T14:25:05.023Z,75.20
2022-10-01T14:27:45.061Z,75.15
2022-10-01T14:30:16.569Z,74.90
2022-10-01T14:32:56.211Z,75.05
2022-10-01T14:35:53.332Z,75.05
2022-10-01T14:38:22.473Z,75.16
2022-10-01T14:40:52.034Z,75.30
2022-10-01T14:43:25.608Z,75.15
2022-10-01T14:45:59.840Z,75.21
2022-10-01T14:48:31.294Z,75.21
2022-10-01T14:51:06.071Z,75.19
2022-10-01T14:53:38.246Z,75.24
2022-10-01T14:56:14.351Z,75.44
2022-10-01T14:58:46.050Z,75.38
2022-10-01T15:01:25.387Z,75.41
2022-10-01T15:03:54.719Z,75.71
2022-10-01T15:06:28.216Z,75.77
2022-10-01T15:09:08.410Z,75.71
2022-10-01T15:11:44.687Z,75.83
2022-10-01T15:14:22.016Z,76.00
2022-10-01T15:16:51.385Z,76.35
2022-10-01T15:19:21.941Z,76.42
2022-10-01T15:21:55.964Z,76.59
2022-10-01T15:24:46.732Z,76.71
2022-10-01T15:27:19.618Z,76.72
2022-10-01T15:29:56.096Z,76.89
2022-10-01T15:32:28.226Z,76.90
2022-10-01T15:35:00.179Z,76.86
2022-10-01T15:37:36.785Z,76.86
2022-10-01T15:40:08.220Z,76.87
2022-10-01T15:42:36.703Z,76.91
2022-10-01T15:45:08.095Z,77.28
2022-10-01T15:47:38.113Z,77.31
2022-10-01T15:50:06.193Z,77.21
2022-10-01T15:53:10.905Z,77.31
2022-10-01T15:55:48.768Z,77.33
2022-10-01T15:58:22.877Z,77.39
2022-10-01T16:01:00.045Z,77.48
2022-10-01T16:03:42.628Z,77.62
2022-10-01T16:06:28.896Z,77.86
2022-10-01T16:09:18.366Z,77.79
2022-10-01T16:11:59.416Z,77.89
2022-10-01T16:14:41.035Z,78.08
2022-10-01T16:17:18.095Z,78.17
2022-10-01T16:20:29.741Z,78.33
2022-10-01T16:23:35.727Z,78.37
2022-10-01T16:26:32.732Z,78.61
2022-10-01T16:29:43.839Z,78.75
2022-10-01T16:32:15.019Z,79.03
2022-10-01T16:34:42.963Z,79.19
2022-10-01T16:37:11.047Z,79.25
2022-10-01T16:39:39.008Z,79.21
2022-10-01T16:42:23.267Z,79.31
2022-10-01T16:44:52.607Z,79.23
2022-10-01T16:47:20.441Z,79.23
2022-10-01T16:49:50.343Z,79.45
2022-10-01T16:52:18.329Z,79.59
2022-10-01T16:54:48.388Z,79.70
2022-10-01T16:57:19.108Z,79.73
2022-10-01T16:59:47.175Z,79.84
2022-10-01T17:02:15.102Z,80.15
2022-10-01T17:04:42.984Z,80.25
2022-10-01T17:07:10.933Z,80.11
2022-10-01T17:09:38.702Z,80.15
2022-10-01T17:12:06.914Z,80.37
2022-10-01T17:14:34.936Z,80.54
2022-10-01T17:17:02.885Z,80.53
2022-10-01T17:19:30.922Z,80.59
2022-10-01T17:21:58.905Z,80.73
2022-10-01T17:24:27.124Z,80.72
2022-10-01T17:26:57.798Z,80.90
2022-10-01T17:29:26.993Z,81.17
2022-10-01T17:31:54.912Z,81.21
2022-10-01T17:34:23.046Z,81.08
2022-10-01T17:36:51.950Z,81.06
2022-10-01T17:39:19.829Z,81.08
2022-10-01T17:41:47.841Z,81.22
2022-10-01T17:44:15.785Z,81.24
2022-10-01T17:46:43.937Z,81.04
2022-10-01T17:49:11.838Z,81.29
2022-10-01T17:51:40.242Z,81.31
2022-10-01T17:54:08.428Z,81.37
2022-10-01T17:56:38.518Z,81.68
2022-10-01T17:59:06.671Z,81.76
2022-10-01T18:01:34.648Z,81.90
2022-10-01T18:04:03.926Z,81.75
2022-10-01T18:06:32.624Z,81.95
2022-10-01T18:09:00.759Z,82.18
2022-10-01T18:11:29.443Z,82.23
2022-10-01T18:13:57.769Z,82.03
2022-10-01T18:16:27.070Z,82.19
2022-10-01T18:21:47.997Z,82.74
2022-10-01T18:24:16.568Z,82.61
2022-10-01T18:26:45.926Z,82.80
2022-10-01T18:29:18.988Z,82.59
2022-10-01T18:31:51.919Z,82.80
2022-10-01T18:34:32.965Z,82.87
2022-10-01T18:37:24.878Z,83.06
2022-10-01T18:40:17.892Z,83.04
2022-10-01T18:42:59.546Z,83.13
2022-10-01T18:45:43.645Z,83.13
2022-10-01T18:48:21.786Z,83.31
2022-10-01T18:51:20.387Z,83.31
2022-10-01T18:53:53.949Z,83.09
2022-10-01T18:56:34.680Z,83.49
2022-10-01T18:59:09.955Z,83.81
2022-10-01T19:01:44.487Z,84.00
2022-10-01T19:04:27.702Z,84.08
2022-10-01T19:07:01.340Z,84.06
2022-10-01T19:09:56.814Z,84.39
2022-10-01T19:12:43.521Z,84.63
2022-10-01T19:15:26.859Z,84.42
2022-10-01T19:18:19.745Z,84.31
2022-10-01T19:21:12.955Z,84.67
2022-10-01T19:23:46.209Z,84.42
2022-10-01T19:26:23.349Z,84.28
2022-10-01T19:29:09.967Z,84.85
2022-10-01T19:32:02.792Z,85.07
2022-10-01T19:34:58.762Z,84.98
2022-10-01T19:37:36.846Z,85.49
2022-10-01T19:40:17.566Z,85.73
2022-10-01T19:42:54.291Z,85.74
2022-10-01T19:45:35.188Z,85.83
2022-10-01T19:48:12.741Z,85.88
2022-10-01T19:50:45.067Z,85.85
2022-10-01T19:53:28.120Z,85.74
2022-10-01T19:56:00.365Z,85.89
2022-10-01T19:58:30.735Z,85.99
2022-10-01T20:01:02.122Z,86.13
2022-10-01T20:03:33.376Z,86.27
2022-10-01T20:06:08.995Z,86.46
2022-10-01T20:08:52.959Z,86.44
2022-10-01T20:11:41.789Z,86.30
2022-10-01T20:14:46.644Z,86.30
2022-10-01T20:17:48.145Z,86.18
2022-10-01T20:20:53.578Z,86.03
2022-10-01T20:23:38.076Z,86.22
2022-10-01T20:26:14.746Z,86.19
2022-10-01T20:29:10.845Z,86.27
2022-10-01T20:31:47.450Z,86.35
2022-10-01T20:34:21.946Z,86.36
2022-10-01T20:37:25.116Z,86.54
2022-10-01T20:40:01.833Z,86.16
2022-10-01T20:42:35.562Z,86.61
2022-10-01T20:45:06.691Z,86.81
2022-10-01T20:47:46.898Z,86.98
2022-10-01T20:50:20.966Z,87.06
2022-10-01T20:53:10.581Z,87.21
2022-10-01T20:55:43.931Z,87.28
2022-10-01T20:58:34.575Z,87.55
2022-10-01T21:01:10.385Z,88.06
2022-10-01T21:03:46.553Z,88.17
2022-10-01T21:06:18.614Z,88.58
2022-10-01T21:09:00.833Z,88.97
2022-10-01T21:12:11.712Z,88.64
2022-10-01T21:14:46.367Z,88.27
2022-10-01T21:17:32.889Z,87.95
2022-10-01T21:20:34.297Z,87.95
2022-10-01T21:23:31.973Z,87.67
2022-10-01T21:26:15.380Z,87.65
2022-10-01T21:29:12.212Z,87.38
2022-10-01T21:32:03.291Z,87.05
2022-10-01T21:34:50.316Z,86.83
2022-10-01T21:37:34.443Z,86.87
2022-10-01T21:40:22.374Z,86.99
2022-10-01T21:43:08.318Z,87.20
2022-10-01T21:45:53.238Z,87.49
2022-10-01T21:48:53.925Z,87.69
2022-10-01T21:51:46.908Z,87.79
2022-10-01T21:54:45.874Z,88.03
2022-10-01T21:57:37.532Z,88.04
2022-10-01T22:00:22.288Z,88.05
2022-10-01T22:02:53.718Z,88.09
2022-10-01T22:05:29.477Z,88.17
2022-10-01T22:08:16.259Z,88.16
2022-10-01T22:10:51.137Z,88.13
2022-10-01T22:13:27.275Z,88.27
2022-10-01T22:16:07.355Z,88.28
2022-10-01T22:18:46.359Z,88.33
2022-10-01T22:21:34.802Z,88.40
2022-10-01T22:24:13.634Z,88.49
2022-10-01T22:27:11.564Z,88.49
2022-10-01T22:30:02.255Z,88.37
2022-10-01T22:32:35.718Z,88.38
2022-10-01T22:35:09.190Z,88.43
2022-10-01T22:37:47.116Z,88.49
2022-10-01T22:40:23.468Z,88.60
2022-10-01T22:43:17.798Z,88.71
2022-10-01T22:46:34.505Z,88.71
2022-10-01T22:49:14.902Z,88.76
2022-10-01T22:52:18.055Z,88.74
2022-10-01T22:55:01.325Z,88.74
2022-10-01T22:57:57.658Z,88.80
2022-10-01T23:00:26.376Z,88.79
2022-10-01T23:03:06.320Z,88.92
2022-10-01T23:05:52.340Z,88.92
2022-10-01T23:08:40.949Z,88.97
2022-10-01T23:11:27.786Z,88.96
2022-10-01T23:14:15.692Z,89.04
2022-10-01T23:17:01.481Z,89.13
2022-10-01T23:19:42.450Z,89.22
2022-10-01T23:22:41.361Z,89.19
2022-10-01T23:25:35.511Z,89.08
2022-10-01T23:28:19.130Z,89.13
2022-10-01T23:30:59.431Z,89.14
2022-10-01T23:33:52.557Z,89.14
2022-10-01T23:36:23.507Z,89.18
2022-10-01T23:39:25.192Z,89.27
2022-10-01T23:42:15.163Z,89.31
2022-10-01T23:44:59.648Z,89.18
2022-10-01T23:47:38.412Z,89.12
2022-10-01T23:50:17.674Z,89.06
2022-10-01T23:52:52.652Z,89.04
2022-10-01T23:55:54.522Z,89.26
2022-10-01T23:58:23.226Z,89.52
